Sycamore, Illinois
Current Conditions -  °F | °C
As of 2:55 PM on Saturday 25 Oct 2014 (Local Time) from KDKB Reporting Station
Clear Clear  
Wind Chill: 69°   Ceiling: Unl
Heat Index: 69°   Visibility: 10mi
Dew Point: 29°   Wind: 18mph
Humidity: 23%   Direction: 300°WNW
Pressure: 29.95"   Gusts: 28mph
Location:  41.99°N, 88.68°W
Report Text: KDKB 251955Z AUTO 30016G24KT 10SM CLR 21/M01 A2995 RMK AO2 T02061015
Loading
Personal Weather Stations






























Interactive Weather Map
Tropical Storm Tracking
New forecast layout! Learn more

10-Day Weather Forecast

Advertisements
Track Severe Weather on mobile